Terminal Aerodrome Forecast
Issued by NWS Albuquerque, NM

Home | Current Version | Previous Version | Text Only | Print | Product List | Glossary On
Versions: 1 2 3 4 5 6 7 8 9 10 11 12 13 14 15 16 17 18
224
FTUS45 KABQ 200540
TAFABQ
TAF
KABQ 200540Z 2006/2106 VRB06KT P6SM SCT030 SCT070
     FM201200 20009KT P6SM VCSH SCT025 BKN040 BKN080
     FM201600 24014G22KT P6SM OVC050
     FM201900 26020G31KT P6SM BKN050
     FM210000 26013G19KT P6SM VCSH SCT025 BKN050=

USA.gov is the U.S. government's official web portal to all federal, state and local government web resources and services.